Time;durP1;ratioP1;P1;durP2;ratioP2;P2;SDS_P1;SDS_P2;PMS_P1;PMS_P2;Temp;Humidity;BMP_temperature;BMP_pressure;BME280_temperature;BME280_humidity;BME280_pressure;Samples;Min_cycle;Max_cycle;Signal;HPM_P1;HPM_P2
2023/04/30 00:00:22;;;;;;;8.80;4.78;;;7.50;99.90;;;;;;7369552;19;20023;-61
2023/04/30 00:02:49;;;;;;;10.68;5.03;;;7.50;99.90;;;;;;7372888;19;20059;-61
2023/04/30 00:05:16;;;;;;;9.05;4.53;;;7.40;99.90;;;;;;7369651;19;20010;-61
2023/04/30 00:07:42;;;;;;;11.98;5.75;;;7.40;99.90;;;;;;7369914;19;20489;-61
2023/04/30 00:10:09;;;;;;;11.02;5.25;;;7.40;99.90;;;;;;7368572;19;20015;-61
2023/04/30 00:12:36;;;;;;;10.30;5.85;;;7.30;99.90;;;;;;7371049;19;20052;-61
2023/04/30 00:15:03;;;;;;;12.40;5.90;;;7.30;99.90;;;;;;7368570;19;20058;-61
2023/04/30 00:17:30;;;;;;;10.43;5.05;;;7.20;99.90;;;;;;7369406;19;20026;-61
2023/04/30 00:19:57;;;;;;;11.35;5.93;;;7.20;99.90;;;;;;7367992;19;20419;-61
2023/04/30 00:22:23;;;;;;;10.55;5.97;;;7.20;99.90;;;;;;7371127;19;20287;-65
2023/04/30 00:24:49;;;;;;;12.10;6.47;;;7.10;99.90;;;;;;7367849;19;20899;-65
2023/04/30 00:27:15;;;;;;;12.95;6.20;;;7.10;99.90;;;;;;7362172;19;20074;-65
2023/04/30 00:29:41;;;;;;;12.30;6.00;;;7.00;99.90;;;;;;7360976;19;20022;-65
2023/04/30 00:32:07;;;;;;;14.80;5.82;;;7.00;99.90;;;;;;7369495;19;20018;-65
2023/04/30 00:34:34;;;;;;;7.63;5.60;;;7.00;99.90;;;;;;7377018;19;20014;-65
2023/04/30 00:37:00;;;;;;;11.38;6.45;;;7.00;99.90;;;;;;7379618;19;20038;-65
2023/04/30 00:39:26;;;;;;;11.90;5.78;;;7.00;99.90;;;;;;7377727;19;20022;-65
2023/04/30 00:41:52;;;;;;;10.00;5.50;;;7.00;99.90;;;;;;7377482;19;20019;-65
2023/04/30 00:44:18;;;;;;;11.02;5.90;;;6.80;99.90;;;;;;7375759;19;20528;-65
2023/04/30 00:46:44;;;;;;;11.25;5.93;;;6.90;99.90;;;;;;7371696;19;20101;-65
2023/04/30 00:49:11;;;;;;;7.15;5.10;;;6.80;99.90;;;;;;7377079;19;20024;-65
2023/04/30 00:51:40;;;;;;;12.00;5.93;;;6.70;99.90;;;;;;7379364;19;20026;-65
2023/04/30 00:54:08;;;;;;;9.63;5.55;;;6.80;99.90;;;;;;7368761;19;20042;-65
2023/04/30 00:56:34;;;;;;;10.73;5.90;;;6.70;99.90;;;;;;7365902;19;20044;-65
2023/04/30 00:59:01;;;;;;;10.40;5.63;;;6.70;99.90;;;;;;7367929;19;20029;-65
2023/04/30 01:01:27;;;;;;;10.63;5.75;;;6.60;99.90;;;;;;7364999;19;20022;-65
2023/04/30 01:03:54;;;;;;;12.95;5.50;;;6.60;99.90;;;;;;7370463;19;20833;-65
2023/04/30 01:06:21;;;;;;;9.20;5.78;;;6.60;99.90;;;;;;7374529;19;20482;-65
2023/04/30 01:08:49;;;;;;;10.27;5.93;;;6.60;99.90;;;;;;7377904;19;20945;-61
2023/04/30 01:11:46;;;;;;;11.88;6.18;;;6.50;99.90;;;;;;7373900;19;20022;-61
2023/04/30 01:14:24;;;;;;;9.95;5.45;;;6.50;99.90;;;;;;7374223;19;20022;-61
2023/04/30 01:17:11;;;;;;;10.57;6.40;;;6.50;99.90;;;;;;7375922;19;20018;-61
2023/04/30 01:19:44;;;;;;;8.80;5.63;;;6.40;99.90;;;;;;7376889;19;20371;-61
2023/04/30 01:22:25;;;;;;;11.32;5.40;;;6.40;99.90;;;;;;7374461;19;20111;-61
2023/04/30 01:25:12;;;;;;;9.68;5.15;;;6.40;99.90;;;;;;7372894;19;20664;-61
2023/04/30 01:28:13;;;;;;;10.40;5.32;;;6.40;99.90;;;;;;7372835;19;20018;-61
2023/04/30 01:30:43;;;;;;;9.32;5.47;;;6.40;99.90;;;;;;7375778;19;20032;-61
2023/04/30 01:33:11;;;;;;;10.30;5.78;;;6.30;99.90;;;;;;7374026;19;20455;-65
2023/04/30 01:35:49;;;;;;;10.02;5.60;;;6.20;99.90;;;;;;7377263;19;20022;-65
2023/04/30 01:38:18;;;;;;;8.63;5.00;;;6.20;99.90;;;;;;7379227;19;20018;-66
2023/04/30 01:41:11;;;;;;;8.57;5.10;;;6.10;99.90;;;;;;7375037;19;20119;-61
2023/04/30 01:44:15;;;;;;;10.90;4.88;;;6.00;99.90;;;;;;7372820;19;20046;-61
2023/04/30 01:46:50;;;;;;;12.65;5.72;;;6.00;99.90;;;;;;7370680;19;20022;-61
2023/04/30 01:49:17;;;;;;;10.60;5.65;;;5.90;99.90;;;;;;7369045;19;20852;-61
2023/04/30 01:51:46;;;;;;;10.00;5.47;;;5.90;99.90;;;;;;7372063;19;20026;-62
2023/04/30 01:54:37;;;;;;;9.98;5.90;;;5.90;99.90;;;;;;7368595;19;20035;-65
2023/04/30 01:57:06;;;;;;;11.10;5.40;;;5.90;99.90;;;;;;7376486;19;20019;-65
2023/04/30 01:59:38;;;;;;;9.27;5.32;;;5.90;99.90;;;;;;7370374;19;20023;-65
2023/04/30 02:02:05;;;;;;;8.65;5.22;;;5.80;99.90;;;;;;7374105;19;20015;-65
2023/04/30 02:04:31;;;;;;;10.07;5.65;;;5.80;99.90;;;;;;7373739;19;20025;-64
2023/04/30 02:06:59;;;;;;;12.80;5.82;;;5.70;99.90;;;;;;7374455;19;20546;-64
2023/04/30 02:09:26;;;;;;;15.48;6.47;;;5.80;99.90;;;;;;7373437;19;20120;-62
2023/04/30 02:11:52;;;;;;;7.03;5.38;;;5.70;99.90;;;;;;7374386;19;20015;-61
2023/04/30 02:14:18;;;;;;;13.32;6.95;;;5.70;99.90;;;;;;7373753;19;20617;-61
2023/04/30 02:16:45;;;;;;;10.15;5.85;;;5.70;99.90;;;;;;7373032;19;20463;-61
2023/04/30 02:19:11;;;;;;;8.75;6.78;;;5.60;99.90;;;;;;7371809;19;20018;-61
2023/04/30 02:21:37;;;;;;;10.98;6.45;;;5.60;99.90;;;;;;7372293;19;21914;-62
2023/04/30 02:24:05;;;;;;;10.52;6.60;;;5.60;99.90;;;;;;7372600;19;20022;-61
2023/04/30 02:26:31;;;;;;;10.52;6.20;;;5.50;99.90;;;;;;7369689;19;20023;-61
2023/04/30 02:28:57;;;;;;;10.80;6.63;;;5.50;99.90;;;;;;7373890;19;20713;-61
2023/04/30 02:31:23;;;;;;;11.15;6.82;;;5.50;99.90;;;;;;7373410;19;20517;-61
2023/04/30 02:33:50;;;;;;;12.82;7.32;;;5.50;99.90;;;;;;7371953;19;20493;-61
2023/04/30 02:36:16;;;;;;;9.77;6.30;;;5.30;99.90;;;;;;7370913;19;20014;-62
2023/04/30 02:38:42;;;;;;;11.05;6.75;;;5.30;99.90;;;;;;7374407;19;20029;-61
2023/04/30 02:41:08;;;;;;;11.65;6.88;;;5.20;99.90;;;;;;7372317;19;20495;-61
2023/04/30 02:43:34;;;;;;;9.32;6.88;;;5.30;99.90;;;;;;7371101;19;20776;-65
2023/04/30 02:46:01;;;;;;;11.95;6.75;;;5.30;99.90;;;;;;7368037;19;20035;-64
2023/04/30 02:48:28;;;;;;;11.13;6.35;;;5.30;99.90;;;;;;7376049;19;20022;-65
2023/04/30 02:50:55;;;;;;;10.88;7.28;;;5.30;99.90;;;;;;7375824;19;20021;-65
2023/04/30 02:53:21;;;;;;;9.93;6.70;;;5.20;99.90;;;;;;7372676;19;20382;-64
2023/04/30 02:55:49;;;;;;;13.30;7.00;;;5.30;99.90;;;;;;7374299;19;20022;-65
2023/04/30 02:58:15;;;;;;;12.93;7.25;;;5.30;99.90;;;;;;7371463;19;20030;-62
2023/04/30 03:00:41;;;;;;;9.35;6.60;;;5.30;99.90;;;;;;7372054;19;20458;-62
2023/04/30 03:03:07;;;;;;;10.20;6.30;;;5.20;99.90;;;;;;7372221;19;20041;-61
2023/04/30 03:05:34;;;;;;;11.98;7.07;;;5.30;99.90;;;;;;7368870;19;20046;-62
2023/04/30 03:08:01;;;;;;;13.07;7.13;;;5.20;99.90;;;;;;7369234;19;20063;-61
2023/04/30 03:10:27;;;;;;;8.50;6.93;;;5.20;99.90;;;;;;7370997;19;20026;-62
2023/04/30 03:12:54;;;;;;;12.27;7.38;;;5.20;99.90;;;;;;7364168;19;20015;-61
2023/04/30 03:15:20;;;;;;;13.43;7.28;;;5.20;99.90;;;;;;7364926;19;20140;-65
2023/04/30 03:17:46;;;;;;;10.95;6.65;;;5.10;99.90;;;;;;7366732;19;20022;-65
2023/04/30 03:20:13;;;;;;;9.57;6.88;;;5.10;99.90;;;;;;7368391;19;20022;-65
2023/04/30 03:22:39;;;;;;;10.25;7.32;;;5.10;99.90;;;;;;7368609;19;20789;-65
2023/04/30 03:25:06;;;;;;;11.18;7.05;;;5.00;99.90;;;;;;7368364;19;20631;-65
2023/04/30 03:27:32;;;;;;;15.80;7.47;;;5.10;99.90;;;;;;7368194;19;20049;-64
2023/04/30 03:29:58;;;;;;;11.15;7.03;;;5.00;99.90;;;;;;7367554;19;20486;-65
2023/04/30 03:32:24;;;;;;;9.98;7.22;;;5.00;99.90;;;;;;7369877;19;20028;-65
2023/04/30 03:34:50;;;;;;;11.88;8.23;;;4.90;99.90;;;;;;7368121;19;20537;-65
2023/04/30 03:37:17;;;;;;;12.68;7.35;;;4.90;99.90;;;;;;7372217;19;20018;-65
2023/04/30 03:39:43;;;;;;;13.55;7.63;;;4.90;99.90;;;;;;7370278;19;20895;-61
2023/04/30 03:42:09;;;;;;;12.93;7.45;;;4.90;99.90;;;;;;7370954;19;20094;-61
2023/04/30 03:44:37;;;;;;;12.43;7.82;;;4.90;99.90;;;;;;7370480;19;20029;-61
2023/04/30 03:47:04;;;;;;;9.48;7.10;;;4.90;99.90;;;;;;7369551;19;20022;-61
2023/04/30 03:49:30;;;;;;;12.38;8.15;;;4.80;99.90;;;;;;7368297;19;20014;-61
2023/04/30 03:51:56;;;;;;;12.55;7.75;;;4.80;99.90;;;;;;7368917;19;20018;-61
2023/04/30 03:54:22;;;;;;;11.05;7.63;;;4.80;99.90;;;;;;7370885;19;20469;-64
2023/04/30 03:56:49;;;;;;;12.85;7.70;;;4.90;99.90;;;;;;7371444;19;20022;-64
2023/04/30 03:59:15;;;;;;;10.80;7.18;;;4.90;99.90;;;;;;7368143;19;20018;-64
2023/04/30 04:01:42;;;;;;;12.02;7.45;;;4.80;99.90;;;;;;7369929;19;20022;-64
2023/04/30 04:04:09;;;;;;;7.45;6.65;;;4.90;99.90;;;;;;7367268;19;20028;-61
2023/04/30 04:06:35;;;;;;;11.77;7.22;;;4.80;99.90;;;;;;7366828;19;20023;-64
2023/04/30 04:09:03;;;;;;;11.43;8.00;;;4.90;99.90;;;;;;7367453;19;20026;-64
2023/04/30 04:11:29;;;;;;;9.48;7.53;;;4.90;99.90;;;;;;7369551;19;20056;-64
2023/04/30 04:13:57;;;;;;;11.85;7.22;;;5.00;99.90;;;;;;7367986;19;20902;-64
2023/04/30 04:16:23;;;;;;;10.10;7.25;;;5.10;99.90;;;;;;7370013;19;20029;-64
2023/04/30 04:18:49;;;;;;;10.13;6.82;;;5.10;99.90;;;;;;7370962;19;20018;-64
2023/04/30 04:21:15;;;;;;;11.80;6.95;;;5.20;99.90;;;;;;7368870;19;20019;-65
2023/04/30 04:23:42;;;;;;;10.40;7.32;;;5.20;99.90;;;;;;7370229;19;20034;-64
2023/04/30 04:26:09;;;;;;;10.52;7.07;;;5.30;99.90;;;;;;7361403;19;20117;-64
2023/04/30 04:28:36;;;;;;;10.13;7.75;;;5.30;99.90;;;;;;7365868;19;20026;-64
2023/04/30 04:31:03;;;;;;;10.35;7.28;;;5.40;99.90;;;;;;7366602;19;20892;-64
2023/04/30 04:33:30;;;;;;;11.85;7.72;;;5.50;99.90;;;;;;7369556;19;20021;-64
2023/04/30 04:35:56;;;;;;;12.73;8.35;;;5.50;99.90;;;;;;7367435;19;20030;-61
2023/04/30 04:38:23;;;;;;;12.80;9.02;;;5.60;99.90;;;;;;7366680;19;20612;-62
2023/04/30 04:40:53;;;;;;;12.30;8.57;;;5.70;99.90;;;;;;7364674;19;20022;-61
2023/04/30 04:43:19;;;;;;;15.45;10.50;;;5.70;99.90;;;;;;7365973;19;20015;-62
2023/04/30 04:45:46;;;;;;;15.93;9.93;;;5.80;99.90;;;;;;7361907;19;20501;-61
2023/04/30 04:48:13;;;;;;;17.42;9.75;;;5.80;99.90;;;;;;7366502;19;20014;-61
2023/04/30 04:50:40;;;;;;;15.38;9.38;;;5.90;99.90;;;;;;7365025;19;20014;-61
2023/04/30 04:53:06;;;;;;;18.13;9.82;;;5.90;99.90;;;;;;7369362;19;20021;-61
2023/04/30 04:55:32;;;;;;;16.88;9.77;;;6.00;99.90;;;;;;7364845;19;20816;-65
2023/04/30 04:57:58;;;;;;;18.92;9.90;;;6.10;99.90;;;;;;7366975;19;20608;-62
2023/04/30 05:00:24;;;;;;;16.30;9.38;;;6.10;99.90;;;;;;7357139;19;20678;-62
2023/04/30 05:02:51;;;;;;;14.40;9.20;;;6.30;99.90;;;;;;7369773;19;20585;-64
2023/04/30 05:05:17;;;;;;;13.55;8.82;;;6.30;99.90;;;;;;7358679;19;20594;-61
2023/04/30 05:07:43;;;;;;;18.45;9.88;;;6.50;99.90;;;;;;7368487;19;20398;-65
2023/04/30 05:10:10;;;;;;;14.90;8.68;;;6.60;99.90;;;;;;7364340;19;20018;-64
2023/04/30 05:12:36;;;;;;;17.55;8.40;;;6.60;99.90;;;;;;7368619;19;20559;-61
2023/04/30 05:15:03;;;;;;;15.25;8.80;;;6.70;99.90;;;;;;7363072;19;20026;-61
2023/04/30 05:17:29;;;;;;;17.67;8.88;;;6.90;99.90;;;;;;7364106;19;20014;-64
2023/04/30 05:19:56;;;;;;;12.27;7.78;;;7.10;99.90;;;;;;7361891;19;20022;-61
2023/04/30 05:22:22;;;;;;;10.82;6.82;;;7.30;99.90;;;;;;7365017;19;20031;-62
2023/04/30 05:24:50;;;;;;;13.98;7.22;;;7.40;99.90;;;;;;7368880;19;20018;-62
2023/04/30 05:27:16;;;;;;;10.15;6.82;;;7.60;99.90;;;;;;7370699;19;20041;-62
2023/04/30 05:29:42;;;;;;;10.20;6.43;;;7.70;99.90;;;;;;7371091;19;20025;-65
2023/04/30 05:32:09;;;;;;;9.88;6.10;;;7.80;99.90;;;;;;7370517;19;20018;-65
2023/04/30 05:34:35;;;;;;;10.75;6.35;;;7.90;99.90;;;;;;7372225;19;20774;-65
2023/04/30 05:37:02;;;;;;;12.48;5.80;;;7.90;99.90;;;;;;7372638;19;20022;-66
2023/04/30 05:39:29;;;;;;;10.88;5.80;;;8.10;99.90;;;;;;7373232;19;20417;-65
2023/04/30 05:41:55;;;;;;;12.50;5.93;;;8.20;99.90;;;;;;7372361;19;20029;-62
2023/04/30 05:44:21;;;;;;;9.48;5.50;;;8.20;99.90;;;;;;7372428;19;20045;-62
2023/04/30 05:46:47;;;;;;;10.70;6.28;;;8.10;99.90;;;;;;7370798;19;20101;-63
2023/04/30 05:49:14;;;;;;;14.15;6.32;;;8.10;99.90;;;;;;7371995;19;20509;-63
2023/04/30 05:51:40;;;;;;;12.77;6.00;;;8.10;99.90;;;;;;7372544;19;20042;-62
2023/04/30 05:54:06;;;;;;;13.75;6.03;;;8.40;99.90;;;;;;7370253;19;20386;-62
2023/04/30 05:56:32;;;;;;;10.10;5.50;;;8.40;99.90;;;;;;7370416;19;20039;-62
2023/04/30 05:58:58;;;;;;;11.20;5.35;;;8.50;99.90;;;;;;7373925;19;20037;-62
2023/04/30 06:01:27;;;;;;;10.95;5.55;;;8.80;99.90;;;;;;7367505;19;20055;-62
2023/04/30 06:03:54;;;;;;;12.43;5.45;;;9.00;99.90;;;;;;7368016;19;20026;-62
2023/04/30 06:06:20;;;;;;;12.35;6.43;;;9.00;99.90;;;;;;7375584;19;20363;-65
2023/04/30 06:08:47;;;;;;;10.27;4.90;;;9.40;99.90;;;;;;7375122;19;20015;-65
2023/04/30 06:11:14;;;;;;;13.10;4.90;;;9.50;99.90;;;;;;7374787;19;20164;-65
2023/04/30 06:13:40;;;;;;;14.13;4.50;;;9.60;99.90;;;;;;7378546;19;20061;-65
2023/04/30 06:16:07;;;;;;;8.95;4.15;;;9.90;99.90;;;;;;7375309;19;20238;-65
2023/04/30 06:18:34;;;;;;;11.40;4.10;;;9.90;99.90;;;;;;7373489;19;20015;-65
2023/04/30 06:21:00;;;;;;;10.38;4.22;;;10.00;99.90;;;;;;7373252;19;20023;-65
2023/04/30 06:23:27;;;;;;;12.30;5.03;;;10.00;99.90;;;;;;7375106;19;20028;-65
2023/04/30 06:25:53;;;;;;;10.05;4.15;;;10.10;99.90;;;;;;7371978;19;20060;-65
2023/04/30 06:28:20;;;;;;;10.68;4.43;;;10.00;99.90;;;;;;7373835;19;20056;-66
2023/04/30 06:30:46;;;;;;;9.43;4.70;;;10.00;99.90;;;;;;7373516;19;20154;-64
2023/04/30 06:33:13;;;;;;;10.57;4.25;;;9.90;99.90;;;;;;7374504;19;20852;-65
2023/04/30 06:35:39;;;;;;;8.57;4.05;;;10.00;99.90;;;;;;7377764;19;20015;-65
2023/04/30 06:38:05;;;;;;;11.65;4.15;;;10.10;99.90;;;;;;7374390;19;20023;-63
2023/04/30 06:40:31;;;;;;;10.02;4.25;;;10.30;99.90;;;;;;7376715;19;20022;-62
2023/04/30 06:42:58;;;;;;;9.20;3.92;;;10.40;99.90;;;;;;7371192;19;20014;-62
2023/04/30 06:45:24;;;;;;;13.88;4.25;;;10.60;99.90;;;;;;7370296;19;20031;-62
2023/04/30 06:47:52;;;;;;;10.60;3.75;;;10.50;99.90;;;;;;7372093;19;20362;-62
2023/04/30 06:50:20;;;;;;;11.13;3.80;;;10.60;99.90;;;;;;7371752;19;20015;-62
2023/04/30 06:52:46;;;;;;;7.32;3.42;;;10.80;99.90;;;;;;7372210;19;20018;-62
2023/04/30 06:55:12;;;;;;;15.40;3.92;;;10.90;99.90;;;;;;7374116;19;20018;-61
2023/04/30 06:57:39;;;;;;;10.38;5.25;;;10.90;99.90;;;;;;7372864;19;20022;-63
2023/04/30 07:00:06;;;;;;;14.50;4.40;;;11.40;99.90;;;;;;7375595;19;20019;-63
2023/04/30 07:02:32;;;;;;;10.23;3.80;;;11.40;99.90;;;;;;7371892;19;20023;-63
2023/04/30 07:04:58;;;;;;;9.85;3.72;;;11.40;99.90;;;;;;7374373;19;20034;-63
2023/04/30 07:07:25;;;;;;;11.18;3.80;;;11.60;99.90;;;;;;7369707;19;20056;-63
2023/04/30 07:09:52;;;;;;;6.88;3.35;;;11.80;99.90;;;;;;7372707;19;20677;-60
2023/04/30 07:12:20;;;;;;;8.13;3.55;;;12.00;99.90;;;;;;7370500;19;20648;-61
2023/04/30 07:14:46;;;;;;;10.27;3.58;;;12.20;99.90;;;;;;7370812;19;20018;-61
2023/04/30 07:17:12;;;;;;;9.75;3.22;;;12.50;99.90;;;;;;7372600;19;20029;-60
2023/04/30 07:19:39;;;;;;;8.57;3.45;;;12.60;99.90;;;;;;7372510;19;20090;-61
2023/04/30 07:22:05;;;;;;;10.15;3.28;;;12.50;99.90;;;;;;7369175;19;20716;-60
2023/04/30 07:24:31;;;;;;;8.32;3.08;;;12.60;99.90;;;;;;7374452;19;20042;-60
2023/04/30 07:27:01;;;;;;;10.80;3.08;;;12.30;99.90;;;;;;7372352;19;20033;-61
2023/04/30 07:29:28;;;;;;;7.95;2.67;;;12.30;99.90;;;;;;7370811;19;20622;-66
2023/04/30 07:31:55;;;;;;;9.85;3.53;;;12.20;99.90;;;;;;7370862;19;20537;-61
2023/04/30 07:34:22;;;;;;;14.57;3.90;;;12.20;99.90;;;;;;7370118;19;20034;-66
2023/04/30 07:36:48;;;;;;;9.52;3.33;;;12.30;99.90;;;;;;7375344;19;20078;-66
2023/04/30 07:39:15;;;;;;;8.20;3.92;;;12.30;99.90;;;;;;7370610;19;20878;-65
2023/04/30 07:41:41;;;;;;;12.57;4.68;;;12.60;99.90;;;;;;7371831;19;20029;-62
2023/04/30 07:44:08;;;;;;;12.10;3.63;;;13.10;99.90;;;;;;7364868;19;20090;-61
2023/04/30 07:46:35;;;;;;;13.45;3.13;;;13.50;99.90;;;;;;7362751;19;20014;-60
2023/04/30 07:49:01;;;;;;;11.23;3.67;;;14.00;99.90;;;;;;7373232;19;20019;-65
2023/04/30 07:51:28;;;;;;;9.90;3.67;;;13.70;99.90;;;;;;7372703;19;20114;-66
2023/04/30 07:53:54;;;;;;;8.52;3.03;;;13.90;99.90;;;;;;7372933;19;20540;-61
2023/04/30 07:56:21;;;;;;;8.90;3.33;;;14.30;99.90;;;;;;7371331;19;20070;-60
2023/04/30 07:58:47;;;;;;;8.65;3.13;;;14.60;99.90;;;;;;7371447;19;20018;-61
2023/04/30 08:01:14;;;;;;;10.25;4.63;;;14.70;99.90;;;;;;7368645;19;20019;-61
2023/04/30 08:03:41;;;;;;;16.42;6.72;;;14.90;99.90;;;;;;7372540;19;20018;-60
2023/04/30 08:06:07;;;;;;;11.13;3.88;;;14.50;99.90;;;;;;7375094;19;20485;-62
2023/04/30 08:08:34;;;;;;;11.93;5.20;;;13.90;99.90;;;;;;7372497;19;20014;-60
2023/04/30 08:11:00;;;;;;;11.48;5.55;;;13.90;99.90;;;;;;7372816;19;20026;-62
2023/04/30 08:13:27;;;;;;;12.25;3.75;;;14.10;99.90;;;;;;7364010;19;20028;-61
2023/04/30 08:15:53;;;;;;;10.38;4.45;;;14.70;99.90;;;;;;7369165;19;20030;-60
2023/04/30 08:18:20;;;;;;;11.55;4.00;;;15.20;99.90;;;;;;7366513;19;20394;-66
2023/04/30 08:20:47;;;;;;;8.80;3.13;;;15.70;99.90;;;;;;7370143;19;20026;-65
2023/04/30 08:23:15;;;;;;;9.85;3.15;;;16.20;97.20;;;;;;7365224;19;20021;-66
2023/04/30 08:25:44;;;;;;;10.07;3.50;;;16.20;94.80;;;;;;7371617;19;20052;-65
2023/04/30 08:28:11;;;;;;;10.85;3.58;;;16.50;95.20;;;;;;7371634;19;20025;-66
2023/04/30 08:30:38;;;;;;;8.35;2.95;;;16.30;94.80;;;;;;7363856;19;20019;-63
2023/04/30 08:33:05;;;;;;;9.73;3.47;;;15.70;99.20;;;;;;7369813;19;20021;-61
2023/04/30 08:35:31;;;;;;;10.30;3.58;;;15.20;99.50;;;;;;7368852;19;20019;-61
2023/04/30 08:37:58;;;;;;;11.65;5.07;;;15.50;98.50;;;;;;7371306;19;20010;-61
2023/04/30 08:40:25;;;;;;;8.18;3.38;;;14.90;99.90;;;;;;7370077;19;20022;-61
2023/04/30 08:43:07;;;;;;;11.27;4.75;;;15.20;99.90;;;;;;7372782;19;20883;-65
2023/04/30 08:45:35;;;;;;;9.68;3.47;;;16.00;98.00;;;;;;7363801;19;21137;-66
2023/04/30 08:48:03;;;;;;;11.32;3.67;;;15.80;96.50;;;;;;7370526;19;20465;-66
2023/04/30 08:50:31;;;;;;;11.93;4.80;;;15.70;96.10;;;;;;7369019;19;20523;-67
2023/04/30 08:52:58;;;;;;;9.95;3.00;;;16.30;96.10;;;;;;7365655;19;20387;-66
2023/04/30 08:55:27;;;;;;;9.80;2.92;;;17.00;89.70;;;;;;7374790;19;21349;-66
2023/04/30 08:57:54;;;;;;;11.43;2.90;;;17.70;79.80;;;;;;7379532;19;20018;-67
2023/04/30 09:00:20;;;;;;;13.82;5.50;;;17.70;72.50;;;;;;7373532;19;20022;-66
2023/04/30 09:02:48;;;;;;;9.07;3.22;;;17.90;69.10;;;;;;7377059;19;20034;-66
2023/04/30 09:05:15;;;;;;;8.55;3.13;;;18.00;68.50;;;;;;7373620;19;20026;-66
2023/04/30 09:07:43;;;;;;;8.27;2.58;;;17.80;67.20;;;;;;7375888;19;20035;-67
2023/04/30 09:10:16;;;;;;;12.40;3.33;;;17.70;65.50;;;;;;7372215;19;20022;-66
2023/04/30 09:12:44;;;;;;;11.77;2.85;;;17.60;63.10;;;;;;7376069;19;20089;-66
2023/04/30 09:15:12;;;;;;;9.52;3.15;;;17.70;64.00;;;;;;7378544;19;20038;-66
2023/04/30 09:17:38;;;;;;;8.07;2.80;;;18.10;63.60;;;;;;7376892;19;20019;-64
2023/04/30 09:20:13;;;;;;;10.10;2.95;;;18.20;65.90;;;;;;7375573;19;20603;-63
2023/04/30 09:22:41;;;;;;;7.32;2.78;;;18.10;62.90;;;;;;7374671;19;20120;-63
2023/04/30 09:25:08;;;;;;;9.60;3.05;;;18.30;63.70;;;;;;7377457;19;20093;-63
2023/04/30 09:27:35;;;;;;;11.02;3.05;;;18.60;60.90;;;;;;7375337;19;20029;-63
2023/04/30 09:30:01;;;;;;;8.50;2.90;;;18.50;61.10;;;;;;7374451;19;20030;-67
2023/04/30 09:32:28;;;;;;;8.63;3.97;;;18.80;61.50;;;;;;7378481;19;20014;-67
2023/04/30 09:34:55;;;;;;;8.25;2.92;;;18.60;59.30;;;;;;7377504;19;20039;-67
2023/04/30 09:37:33;;;;;;;9.35;2.95;;;19.10;59.80;;;;;;7371591;19;20048;-63
2023/04/30 09:40:00;;;;;;;8.27;3.15;;;19.30;59.60;;;;;;7375828;19;20015;-67
2023/04/30 09:42:26;;;;;;;7.20;3.13;;;19.00;58.00;;;;;;7376667;19;20019;-66
2023/04/30 09:44:52;;;;;;;7.72;2.55;;;19.70;58.00;;;;;;7377249;19;20023;-66
2023/04/30 09:47:19;;;;;;;8.70;3.00;;;19.80;57.30;;;;;;7371943;19;20021;-67
2023/04/30 09:49:50;;;;;;;8.15;3.05;;;19.40;58.40;;;;;;7372106;19;20026;-66
2023/04/30 09:52:20;;;;;;;7.40;2.85;;;19.70;57.80;;;;;;7374713;19;20491;-66
2023/04/30 09:54:49;;;;;;;10.23;2.80;;;20.10;55.80;;;;;;7373077;19;20380;-67
2023/04/30 09:57:18;;;;;;;12.73;5.28;;;20.00;56.30;;;;;;7374729;19;20025;-66
2023/04/30 09:59:46;;;;;;;7.28;3.03;;;19.90;56.50;;;;;;7371945;19;20019;-65
2023/04/30 10:02:22;;;;;;;6.22;2.55;;;20.00;54.80;;;;;;7367679;19;20501;-62
2023/04/30 10:04:54;;;;;;;6.78;2.85;;;20.30;55.70;;;;;;7365195;19;20011;-67
2023/04/30 10:07:23;;;;;;;9.02;2.72;;;20.70;56.00;;;;;;7369796;19;20021;-67
2023/04/30 10:09:58;;;;;;;8.95;2.70;;;20.80;55.70;;;;;;7377414;19;20093;-67
2023/04/30 10:12:49;;;;;;;9.13;6.20;;;20.80;53.30;;;;;;7372662;19;20023;-67
2023/04/30 10:15:27;;;;;;;8.88;3.03;;;21.10;54.30;;;;;;7370005;19;20018;-66
2023/04/30 10:18:04;;;;;;;12.32;8.82;;;21.40;52.80;;;;;;7378327;19;20019;-67
2023/04/30 10:20:35;;;;;;;9.18;2.80;;;21.10;52.90;;;;;;7376253;19;20018;-67
2023/04/30 10:23:02;;;;;;;9.15;4.03;;;21.20;51.80;;;;;;7375681;19;20029;-67
2023/04/30 10:25:29;;;;;;;8.23;5.28;;;21.60;52.70;;;;;;7364588;19;20014;-67
2023/04/30 10:27:56;;;;;;;7.88;2.75;;;21.70;52.30;;;;;;7374331;19;20596;-67
2023/04/30 10:30:23;;;;;;;6.78;3.42;;;21.80;50.50;;;;;;7374052;19;20018;-66
2023/04/30 10:33:08;;;;;;;6.88;2.38;;;21.50;51.30;;;;;;7372648;19;20022;-66
2023/04/30 10:35:53;;;;;;;7.88;2.55;;;21.50;50.50;;;;;;7371985;19;20019;-67
2023/04/30 10:38:25;;;;;;;6.35;2.75;;;22.00;51.10;;;;;;7370140;19;20054;-66
2023/04/30 10:41:01;;;;;;;6.72;2.53;;;21.60;50.60;;;;;;7373677;19;20015;-67
2023/04/30 10:43:32;;;;;;;8.68;2.47;;;21.80;50.80;;;;;;7369444;19;20854;-66
2023/04/30 10:45:58;;;;;;;5.30;2.55;;;21.60;50.20;;;;;;7369041;19;20022;-66
2023/04/30 10:48:26;;;;;;;8.00;3.03;;;21.20;51.30;;;;;;7369879;19;20043;-67
2023/04/30 10:50:56;;;;;;;9.45;4.95;;;21.60;51.10;;;;;;7369803;19;20025;-67
2023/04/30 10:53:25;;;;;;;8.70;3.77;;;21.60;50.30;;;;;;7371095;19;20014;-66
2023/04/30 10:55:59;;;;;;;19.50;17.30;;;21.20;50.50;;;;;;7369581;19;20011;-67
2023/04/30 10:58:26;;;;;;;7.95;2.35;;;21.50;51.80;;;;;;7365034;19;20776;-66
2023/04/30 11:01:03;;;;;;;7.05;2.25;;;21.20;50.90;;;;;;7347832;19;20542;-66
2023/04/30 11:03:31;;;;;;;5.00;2.70;;;20.80;50.90;;;;;;7370095;19;20018;-67
2023/04/30 11:06:02;;;;;;;9.20;4.82;;;21.10;52.10;;;;;;7364173;19;20014;-66
2023/04/30 11:08:37;;;;;;;5.20;2.28;;;21.50;52.00;;;;;;7370133;19;20026;-67
2023/04/30 11:11:06;;;;;;;5.53;2.38;;;21.40;50.90;;;;;;7368009;19;20026;-62
2023/04/30 11:13:44;;;;;;;5.10;2.45;;;21.80;51.20;;;;;;7362150;19;20014;-63
2023/04/30 11:16:14;;;;;;;6.40;3.65;;;21.40;49.70;;;;;;7364393;19;20123;-63
2023/04/30 11:18:44;;;;;;;9.18;5.63;;;21.90;51.10;;;;;;7368913;19;20481;-63
2023/04/30 11:21:11;;;;;;;8.45;5.13;;;21.80;50.10;;;;;;7366294;19;20056;-63
2023/04/30 11:23:42;;;;;;;6.15;3.17;;;21.40;50.30;;;;;;7366291;19;20026;-63
2023/04/30 11:26:09;;;;;;;6.10;2.33;;;21.80;51.50;;;;;;7360402;19;20060;-63
2023/04/30 11:28:37;;;;;;;5.72;2.45;;;21.70;50.10;;;;;;7363446;19;20015;-62
2023/04/30 11:31:03;;;;;;;6.03;2.38;;;21.70;51.10;;;;;;7362041;19;20053;-63
2023/04/30 11:33:31;;;;;;;5.40;3.10;;;21.50;49.70;;;;;;7361998;19;20506;-63
2023/04/30 11:35:59;;;;;;;7.40;3.17;;;21.50;50.30;;;;;;7364174;19;20765;-62
2023/04/30 11:38:36;;;;;;;5.03;2.10;;;21.70;51.20;;;;;;7363265;19;20789;-63
2023/04/30 11:41:03;;;;;;;5.72;2.53;;;21.30;50.20;;;;;;7364520;19;20018;-62
2023/04/30 11:43:33;;;;;;;6.22;2.55;;;21.70;50.10;;;;;;7365337;19;20021;-63
2023/04/30 11:46:05;;;;;;;8.32;2.70;;;22.00;49.90;;;;;;7359968;19;20011;-63
2023/04/30 11:48:37;;;;;;;7.90;2.88;;;22.00;50.20;;;;;;7364435;19;20018;-63
2023/04/30 11:51:23;;;;;;;;;;;22.40;51.00;;;;;;7365434;19;20022;-63
2023/04/30 11:53:51;;;;;;;5.05;2.50;;;21.80;50.30;;;;;;7367848;19;19923;-63
2023/04/30 11:56:23;;;;;;;7.10;2.95;;;22.10;49.90;;;;;;7364006;19;20345;-62
2023/04/30 11:58:52;;;;;;;4.20;2.83;;;22.10;50.20;;;;;;7363660;19;20014;-63
2023/04/30 12:01:19;;;;;;;6.10;2.50;;;22.70;49.60;;;;;;7361138;19;20060;-62
2023/04/30 12:03:48;;;;;;;5.72;2.33;;;22.70;48.90;;;;;;7363895;19;21810;-62
2023/04/30 12:06:26;;;;;;;6.65;2.55;;;22.60;48.70;;;;;;7362349;19;21537;-63
2023/04/30 12:08:57;;;;;;;5.97;2.30;;;22.90;50.50;;;;;;7363882;19;20042;-62
2023/04/30 12:11:33;;;;;;;5.00;2.22;;;23.30;47.50;;;;;;7362748;19;20380;-62
2023/04/30 12:14:06;;;;;;;8.18;3.15;;;23.40;47.90;;;;;;7363780;19;20403;-62
2023/04/30 12:16:48;;;;;;;6.82;2.63;;;23.10;49.10;;;;;;7360949;19;20596;-62
2023/04/30 12:19:18;;;;;;;5.53;2.25;;;22.80;47.60;;;;;;7367063;19;20525;-63
2023/04/30 12:21:46;;;;;;;3.58;1.92;;;23.60;47.60;;;;;;7362607;19;20025;-63
2023/04/30 12:24:17;;;;;;;5.35;2.30;;;22.70;48.10;;;;;;7365837;19;20014;-62
2023/04/30 12:26:44;;;;;;;3.05;1.90;;;23.10;47.40;;;;;;7359551;19;20810;-62
2023/04/30 12:29:15;;;;;;;6.60;4.40;;;22.70;47.10;;;;;;7365035;19;20139;-63
2023/04/30 12:31:42;;;;;;;34.80;31.23;;;22.90;48.20;;;;;;7370615;19;20026;-63
2023/04/30 12:34:13;;;;;;;6.82;3.65;;;23.10;47.90;;;;;;7362646;19;20569;-63
2023/04/30 12:36:43;;;;;;;7.63;4.97;;;23.30;47.60;;;;;;7368087;19;20019;-63
2023/04/30 12:39:12;;;;;;;11.03;8.97;;;23.80;48.00;;;;;;7371170;19;20014;-62
2023/04/30 12:41:42;;;;;;;7.88;3.38;;;24.30;47.10;;;;;;7371361;19;20015;-65
2023/04/30 12:44:18;;;;;;;5.68;2.78;;;24.40;46.60;;;;;;7369970;19;20025;-62
2023/04/30 12:46:46;;;;;;;6.22;3.58;;;24.20;45.30;;;;;;7369331;19;20030;-61
2023/04/30 12:49:25;;;;;;;13.63;11.20;;;24.50;45.00;;;;;;7371103;19;20030;-62
2023/04/30 12:51:59;;;;;;;7.72;5.20;;;24.80;45.70;;;;;;7370097;19;20006;-62